createdAt,value
2018-12-02T00:04:57.258Z,58.4
2018-12-02T00:10:05.610Z,58.4
2018-12-02T00:20:22.312Z,58.2
2018-12-02T00:25:30.593Z,58.4
2018-12-02T00:30:38.979Z,59.2
2018-12-02T00:46:03.890Z,59.5
2018-12-02T00:51:12.733Z,59.3
2018-12-02T01:01:28.900Z,59.2
2018-12-02T01:06:37.239Z,58.9
2018-12-02T01:11:45.686Z,58.7
2018-12-02T01:27:10.722Z,58.7
2018-12-02T01:47:44.252Z,58.8
2018-12-02T01:52:52.639Z,58.4
2018-12-02T01:58:00.924Z,58
2018-12-02T02:08:17.698Z,57.8
2018-12-02T02:13:25.989Z,58.8
2018-12-02T02:18:34.293Z,59.1
2018-12-02T02:23:42.687Z,58.5
2018-12-02T02:28:51.083Z,59.4
2018-12-02T02:33:59.407Z,59.4
2018-12-02T02:49:24.390Z,60.2
2018-12-02T02:54:32.745Z,60
2018-12-02T03:04:49.494Z,60
2018-12-02T03:25:22.845Z,59.7
2018-12-02T03:30:31.264Z,59.4
2018-12-02T03:35:39.537Z,59.5
2018-12-02T03:45:56.312Z,60.3
2018-12-02T03:51:04.570Z,60.1
2018-12-02T03:56:13.003Z,60.2
2018-12-02T04:06:29.611Z,59.8
2018-12-02T04:11:37.947Z,60.8
2018-12-02T04:16:46.240Z,61.4
2018-12-02T04:27:03.040Z,61.6
2018-12-02T04:37:19.888Z,62.1
2018-12-02T04:42:28.193Z,62.6
2018-12-02T04:47:36.602Z,63.1
2018-12-02T04:52:45.021Z,63.7
2018-12-02T05:13:18.738Z,64.3
2018-12-02T05:18:27.153Z,64.7
2018-12-02T05:33:52.304Z,65.3
2018-12-02T05:39:00.707Z,65.2
2018-12-02T05:44:09.289Z,65.5
2018-12-02T05:49:17.553Z,65.7
2018-12-02T05:54:26.033Z,65.9
2018-12-02T05:59:34.556Z,66.1
2018-12-02T06:09:51.431Z,66.5
2018-12-02T06:14:59.779Z,67.1
2018-12-02T06:20:08.223Z,66.5
2018-12-02T06:30:25.061Z,66.9
2018-12-02T06:35:33.494Z,67
2018-12-02T06:56:07.198Z,66.6
2018-12-02T07:01:15.706Z,67.3
2018-12-02T07:11:32.629Z,67.8
2018-12-02T07:21:49.415Z,67.7
2018-12-02T07:26:57.978Z,67.5
2018-12-02T07:32:06.356Z,68.1
2018-12-02T07:37:14.699Z,67.6
2018-12-02T07:42:23.222Z,68.1
2018-12-02T07:52:40.008Z,68.2
2018-12-02T07:57:48.484Z,68.5
2018-12-02T08:02:56.860Z,68.2
2018-12-02T08:13:13.798Z,67.8
2018-12-02T08:28:38.988Z,67.6
2018-12-02T08:33:47.416Z,67.3
2018-12-02T08:44:04.211Z,68
2018-12-02T08:49:12.534Z,68.2
2018-12-02T08:54:20.931Z,68
2018-12-02T08:59:29.373Z,67.1
2018-12-02T09:04:37.758Z,67.1
2018-12-02T09:09:46.180Z,67.2
2018-12-02T09:14:54.610Z,68.2
2018-12-02T09:25:11.200Z,68.1
2018-12-02T09:35:27.928Z,67.1
2018-12-02T09:40:36.209Z,68.2
2018-12-02T09:45:44.472Z,68.4
2018-12-02T09:56:01.134Z,67
2018-12-02T10:01:09.517Z,68
2018-12-02T10:16:34.320Z,68.3
2018-12-02T10:26:50.975Z,68
2018-12-02T10:31:59.168Z,68.1
2018-12-02T10:37:07.512Z,68.4
2018-12-02T10:42:15.760Z,68.5
2018-12-02T10:47:24.042Z,68.2
2018-12-02T10:52:32.204Z,68.7
2018-12-02T10:57:40.528Z,68.1
2018-12-02T11:07:56.910Z,68.4
2018-12-02T11:13:05.195Z,68.6
2018-12-02T11:18:13.321Z,68.4
2018-12-02T11:23:21.523Z,68.7
2018-12-02T11:28:29.719Z,68.1
2018-12-02T11:33:37.998Z,68.5
2018-12-02T11:38:46.215Z,68.3
2018-12-02T11:54:10.772Z,67.8
2018-12-02T11:59:18.834Z,66.7
2018-12-02T12:09:35.094Z,65.8
2018-12-02T12:14:43.139Z,66.4
2018-12-02T12:24:59.517Z,66.4
2018-12-02T12:30:07.610Z,65.9
2018-12-02T12:35:15.715Z,66.3
2018-12-02T12:45:32.071Z,66.8
2018-12-02T12:50:40.213Z,66.7
2018-12-02T12:55:48.233Z,67.3
2018-12-02T13:00:56.342Z,67.3
2018-12-02T13:06:04.442Z,67.5
2018-12-02T13:11:12.616Z,67.6
2018-12-02T13:21:28.710Z,66.7
2018-12-02T13:26:36.819Z,66.2
2018-12-02T13:36:52.932Z,66.5
2018-12-02T13:42:00.867Z,65.8
2018-12-02T13:47:08.960Z,65.8
2018-12-02T13:52:16.913Z,65.6
2018-12-02T13:57:25.006Z,65.6
2018-12-02T14:02:33.012Z,65.6
2018-12-02T14:12:49.027Z,64.9
2018-12-02T14:17:56.964Z,65.4
2018-12-02T14:23:05.022Z,65
2018-12-02T14:28:13.011Z,64.3
2018-12-02T14:33:20.951Z,63.4
2018-12-02T14:43:37.015Z,64.6
2018-12-02T14:53:52.909Z,65.1
2018-12-02T14:59:00.936Z,64.4
2018-12-02T15:04:08.917Z,65.1
2018-12-02T15:09:16.918Z,64.2
2018-12-02T15:24:40.948Z,64.4
2018-12-02T15:34:56.841Z,63.7
2018-12-02T15:40:04.870Z,63.8
2018-12-02T15:45:12.780Z,63.8
2018-12-02T15:50:20.810Z,63.7
2018-12-02T15:55:28.844Z,62.5
2018-12-02T16:05:44.884Z,62.8
2018-12-02T16:10:52.919Z,62.5
2018-12-02T16:16:00.936Z,62.8
2018-12-02T16:21:08.884Z,63.2
2018-12-02T16:26:16.969Z,63.4
2018-12-02T16:36:32.915Z,64.2
2018-12-02T16:46:48.911Z,65.1
2018-12-02T17:02:12.964Z,65.1
2018-12-02T17:07:21.079Z,65.1
2018-12-02T17:12:29.044Z,65.4
2018-12-02T17:17:37.149Z,65.6
2018-12-02T17:22:45.118Z,65
2018-12-02T17:27:53.212Z,64.8
2018-12-02T17:38:09.278Z,64.1
2018-12-02T17:43:17.207Z,64.2
2018-12-02T17:48:25.317Z,64
2018-12-02T17:53:33.357Z,64.3
2018-12-02T17:58:41.318Z,63.8
2018-12-02T18:03:49.379Z,63.8
2018-12-02T18:08:57.434Z,64
2018-12-02T18:14:05.505Z,64.2
2018-12-02T18:19:13.574Z,64.2
2018-12-02T18:29:29.778Z,64.7
2018-12-02T18:34:37.929Z,64.7
2018-12-02T18:50:02.190Z,65.1
2018-12-02T18:55:10.290Z,64.8
2018-12-02T19:00:18.396Z,64.7
2018-12-02T19:15:42.700Z,64.8
2018-12-02T19:20:50.700Z,64.6
2018-12-02T19:25:58.905Z,65
2018-12-02T19:36:15.164Z,64.8
2018-12-02T19:41:23.281Z,65
2018-12-02T19:46:31.350Z,65
2018-12-02T19:51:39.443Z,65.9
2018-12-02T19:56:47.686Z,65.7
2018-12-02T20:01:55.819Z,66.3
2018-12-02T20:12:12.008Z,66.7
2018-12-02T20:32:44.652Z,68.5
2018-12-02T20:37:52.755Z,68.3
2018-12-02T20:43:00.962Z,68.1
2018-12-02T20:48:08.953Z,68.1
2018-12-02T20:53:17.156Z,68.1
2018-12-02T20:58:25.305Z,68.4
2018-12-02T21:03:33.384Z,67.7
2018-12-02T21:08:41.520Z,68
2018-12-02T21:13:49.668Z,68.4
2018-12-02T21:24:05.937Z,68.3
2018-12-02T21:29:14.143Z,68.5
2018-12-02T21:34:22.377Z,68.4
2018-12-02T21:44:38.439Z,67.8
2018-12-02T21:49:46.556Z,67.8
2018-12-02T21:54:54.686Z,68.1
2018-12-02T22:00:02.712Z,67.9
2018-12-02T22:10:18.968Z,68
2018-12-02T22:15:27.175Z,67.5
2018-12-02T22:20:35.185Z,68
2018-12-02T22:25:43.276Z,67.8
2018-12-02T22:30:51.491Z,67.7
2018-12-02T22:35:59.523Z,68.1
2018-12-02T22:41:07.615Z,67.3
2018-12-02T22:51:23.831Z,67.5
2018-12-02T22:56:32.010Z,67.6
2018-12-02T23:06:48.140Z,67
2018-12-02T23:11:56.336Z,67.3
2018-12-02T23:17:04.416Z,67.5
2018-12-02T23:22:12.469Z,66.6
2018-12-02T23:27:20.668Z,67
2018-12-02T23:32:28.687Z,66.8
2018-12-02T23:53:01.282Z,68.2
2018-12-02T23:58:09.331Z,67.7
